Time;durP1;ratioP1;P1;durP2;ratioP2;P2;SDS_P1;SDS_P2;PMS_P1;PMS_P2;Temp;Humidity;BMP_temperature;BMP_pressure;BME280_temperature;BME280_humidity;BME280_pressure;Samples;Min_cycle;Max_cycle;Signal;HPM_P1;HPM_P2
2024/03/31 00:01:04;;;;;;;25.30;6.30;;;;;;;12.89;58.34;98496.90;104782;1270;61681;-26
2024/03/31 00:03:32;;;;;;;33.60;6.30;;;;;;;13.55;57.64;98499.57;105276;1260;61317;-27
2024/03/31 00:12:32;;;;;;;31.60;6.00;;;;;;;14.21;55.18;98497.65;102574;1292;600060;-25
2024/03/31 00:15:00;;;;;;;41.40;7.70;;;;;;;14.00;55.38;98501.50;104794;1271;61111;-25
2024/03/31 00:17:27;;;;;;;31.20;7.10;;;;;;;13.82;55.62;98505.52;104821;1266;61039;-25
2024/03/31 00:19:55;;;;;;;33.60;7.00;;;;;;;13.69;55.75;98506.04;104797;1266;73031;-25
2024/03/31 00:22:22;;;;;;;46.30;8.10;;;;;;;13.59;55.81;98505.16;104766;1271;74405;-25
2024/03/31 00:31:39;;;;;;;50.00;8.30;;;;;;;13.31;56.06;98499.91;103029;1288;601256;-25
2024/03/31 00:34:07;;;;;;;35.90;7.70;;;;;;;13.19;56.24;98499.34;104791;1271;61238;-25
2024/03/31 00:36:35;;;;;;;45.90;8.10;;;;;;;13.10;56.51;98503.10;105661;1253;61134;-25
2024/03/31 00:39:02;;;;;;;39.60;6.80;;;;;;;13.02;56.51;98506.30;105686;1258;73106;-28
2024/03/31 00:41:30;;;;;;;22.50;4.70;;;;;;;12.88;57.10;98500.71;105665;1254;73372;-28
2024/03/31 00:51:36;;;;;;;28.30;8.10;;;;;;;14.10;55.16;98500.42;102631;1293;600123;-25
2024/03/31 01:01:41;;;;;;;24.10;6.70;;;;;;;13.05;57.66;98491.31;102550;1292;601078;-26
2024/03/31 01:04:09;;;;;;;24.80;7.40;;;;;;;12.81;58.06;98495.67;104861;1266;61202;-26
2024/03/31 01:06:36;;;;;;;40.10;8.80;;;;;;;12.62;58.44;98491.79;104814;1272;61139;-26
2024/03/31 01:09:04;;;;;;;41.00;8.10;;;;;;;12.43;58.97;98492.62;104888;1266;73048;-26
2024/03/31 01:11:32;;;;;;;31.40;8.40;;;;;;;12.24;59.24;98494.26;104774;1267;74395;-26
2024/03/31 01:13:59;;;;;;;33.20;6.50;;;;;;;12.05;59.53;98493.02;104761;1275;72637;-26
2024/03/31 01:16:27;;;;;;;28.60;6.70;;;;;;;12.60;59.40;98502.23;101452;1266;4622125;-27
2024/03/31 01:18:55;;;;;;;33.40;6.30;;;;;;;13.21;58.04;98501.40;105072;1269;61156;-26
2024/03/31 01:29:05;;;;;;;42.80;8.30;;;;;;;12.93;57.58;98498.48;102603;1294;601071;-26
2024/03/31 01:31:33;;;;;;;40.80;6.90;;;;;;;12.80;57.61;98499.07;104785;1270;61062;-25
2024/03/31 01:34:01;;;;;;;29.70;9.50;;;;;;;12.67;57.66;98497.73;104791;1272;61247;-25
2024/03/31 01:44:08;;;;;;;32.10;11.10;;;;;;;12.28;58.70;98491.09;102610;1293;599521;-28
2024/03/31 01:46:35;;;;;;;34.30;8.60;;;;;;;12.11;58.89;98489.40;105272;1265;61140;-27
2024/03/31 01:49:03;;;;;;;40.50;8.70;;;;;;;12.67;58.79;98487.96;105321;1257;61085;-27
2024/03/31 01:51:30;;;;;;;38.80;9.50;;;;;;;13.23;57.27;98483.77;105452;1262;73057;-27
2024/03/31 01:53:58;;;;;;;32.60;9.30;;;;;;;13.25;56.95;98483.12;105115;1262;72929;-27
2024/03/31 01:56:26;;;;;;;26.40;8.60;;;;;;;13.08;56.95;98480.73;105496;1261;71724;-27
2024/03/31 01:58:54;;;;;;;32.30;9.00;;;;;;;12.82;57.48;98488.10;102268;1255;4536901;-27
2024/03/31 02:01:21;;;;;;;27.30;6.70;;;;;;;12.51;57.95;98487.95;105532;1259;61222;-27
2024/03/31 02:03:49;;;;;;;28.30;7.80;;;;;;;12.21;58.81;98488.75;105540;1262;71771;-27
2024/03/31 02:06:16;;;;;;;21.10;6.60;;;;;;;11.97;59.29;98486.70;105594;1263;74273;-27
2024/03/31 02:08:44;;;;;;;26.30;6.30;;;;;;;11.72;60.34;98484.88;105545;1262;71222;-27
2024/03/31 02:11:12;;;;;;;25.20;6.00;;;;;;;11.58;60.42;98480.64;105517;1261;61181;-27
2024/03/31 02:13:39;;;;;;;16.00;4.40;;;;;;;11.48;60.88;98482.45;105273;1261;61182;-27
2024/03/31 02:16:07;;;;;;;36.20;9.60;;;;;;;12.05;60.43;98481.82;105528;1260;73805;-26
2024/03/31 02:26:17;;;;;;;30.00;7.70;;;;;;;12.41;58.59;98475.54;102622;1294;600978;-25
2024/03/31 02:28:45;;;;;;;33.10;8.30;;;;;;;12.13;58.91;98474.80;104814;1267;61110;-25
2024/03/31 02:31:13;;;;;;;29.30;10.10;;;;;;;11.86;59.60;98470.54;104866;1269;61119;-27
2024/03/31 02:33:40;;;;;;;32.60;10.40;;;;;;;11.63;59.99;98471.61;105179;1264;73064;-25
2024/03/31 02:36:12;;;;;;;29.80;7.50;;;;;;;11.47;60.32;98472.11;105196;1267;73128;-25
2024/03/31 02:46:24;;;;;;;29.30;7.10;;;;;;;12.38;59.33;98473.09;102602;1293;599859;-26
2024/03/31 02:48:52;;;;;;;20.80;5.60;;;;;;;12.43;58.49;98470.52;104860;1272;61142;-25
2024/03/31 02:59:04;;;;;;;16.70;5.10;;;;;;;11.82;60.09;98490.20;102579;1292;600361;-26
2024/03/31 03:01:33;;;;;;;17.60;5.90;;;;;;;11.75;60.07;98491.04;104821;1272;61188;-25
2024/03/31 03:04:00;;;;;;;21.40;5.50;;;;;;;11.61;59.94;98492.19;104632;1267;61115;-25
2024/03/31 03:13:46;;;;;;;35.40;5.00;;;;;;;12.43;58.91;98499.21;102573;1294;600948;-26
2024/03/31 03:16:15;;;;;;;19.50;4.50;;;;;;;12.66;58.00;98497.27;104920;1267;61161;-25
2024/03/31 03:18:43;;;;;;;16.40;3.90;;;;;;;12.69;57.34;98502.94;104762;1267;61133;-25
2024/03/31 03:21:11;;;;;;;17.50;5.90;;;;;;;12.58;57.46;98501.55;104777;1274;71762;-25
2024/03/31 03:23:38;;;;;;;23.30;5.10;;;;;;;12.49;57.45;98502.27;104774;1270;73052;-25
2024/03/31 03:26:06;;;;;;;20.90;4.90;;;;;;;12.31;57.53;98507.27;104763;1273;72611;-25
2024/03/31 03:28:34;;;;;;;25.20;5.80;;;;;;;12.09;58.17;98502.80;101666;1267;4552775;-25
2024/03/31 03:31:02;;;;;;;27.80;5.90;;;;;;;11.91;58.54;98504.48;104855;1275;61154;-25
2024/03/31 03:33:30;;;;;;;25.60;6.30;;;;;;;11.65;58.99;98496.99;104847;1270;73006;-27
2024/03/31 03:43:45;;;;;;;13.00;3.70;;;;;;;12.41;58.45;98498.88;102578;1293;600078;-26
2024/03/31 03:46:13;;;;;;;31.50;4.70;;;;;;;12.44;58.15;98498.27;104850;1265;61168;-25
2024/03/31 03:48:40;;;;;;;22.20;4.70;;;;;;;12.27;58.26;98498.80;104821;1270;61255;-25
2024/03/31 03:58:45;;;;;;;16.60;4.50;;;;;;;11.66;59.53;98495.34;102593;1291;599508;-25
2024/03/31 04:01:13;;;;;;;13.30;4.30;;;;;;;11.50;59.98;98495.67;104839;1270;61228;-25
2024/03/31 04:03:41;;;;;;;14.50;4.40;;;;;;;11.40;60.00;98498.46;105244;1261;61383;-25
2024/03/31 04:06:09;;;;;;;14.20;4.70;;;;;;;11.34;60.29;98496.67;105276;1266;71770;-27
2024/03/31 04:16:13;;;;;;;19.00;4.00;;;;;;;13.01;58.05;98501.90;102629;1293;599840;-25
2024/03/31 04:18:41;;;;;;;15.60;4.00;;;;;;;13.00;57.29;98505.33;105160;1270;61192;-25
2024/03/31 04:21:09;;;;;;;13.90;3.60;;;;;;;12.89;57.33;98503.01;105068;1269;61183;-25
2024/03/31 04:31:20;;;;;;;13.10;4.40;;;;;;;12.52;58.55;98501.60;102613;1290;600404;-25
2024/03/31 04:33:48;;;;;;;26.10;4.50;;;;;;;12.47;58.62;98507.01;104879;1267;61104;-26
2024/03/31 04:36:16;;;;;;;15.90;3.90;;;;;;;12.47;58.60;98512.58;104837;1266;61247;-26
2024/03/31 04:46:21;;;;;;;11.10;3.30;;;;;;;13.90;57.32;98515.56;102538;1292;600292;-25
2024/03/31 04:48:49;;;;;;;15.80;4.00;;;;;;;14.17;56.46;98512.98;104892;1272;61261;-25
2024/03/31 04:51:17;;;;;;;12.50;3.70;;;;;;;14.20;56.52;98511.02;104782;1266;61164;-25
2024/03/31 04:53:45;;;;;;;11.50;2.80;;;;;;;14.18;56.18;98512.66;104901;1266;71230;-25
2024/03/31 05:03:51;;;;;;;10.60;3.30;;;;;;;14.28;56.42;98506.20;102650;1295;599873;-25
2024/03/31 05:06:18;;;;;;;14.70;3.60;;;;;;;14.29;56.55;98502.92;104817;1271;61170;-25
2024/03/31 05:08:46;;;;;;;17.10;4.30;;;;;;;14.40;56.10;98506.89;104969;1267;61113;-27
2024/03/31 05:11:14;;;;;;;14.60;3.90;;;;;;;14.48;55.88;98506.05;105166;1267;72124;-25
2024/03/31 05:20:55;;;;;;;16.00;4.40;;;;;;;14.86;55.24;98502.09;102618;1293;600022;-25
2024/03/31 05:23:23;;;;;;;12.80;4.20;;;;;;;14.91;55.07;98499.80;104725;1267;61139;-28
2024/03/31 05:25:51;;;;;;;19.10;4.10;;;;;;;15.04;55.01;98502.77;104828;1267;61066;-28
2024/03/31 05:28:19;;;;;;;10.40;3.70;;;;;;;15.19;55.04;98499.33;104848;1267;72107;-28
2024/03/31 05:30:47;;;;;;;17.20;3.60;;;;;;;15.35;54.53;98497.45;104842;1267;73178;-27
2024/03/31 05:33:15;;;;;;;9.30;3.20;;;;;;;15.40;54.19;98496.35;104822;1268;71535;-27
2024/03/31 05:36:03;;;;;;;11.50;3.90;;;;;;;15.43;53.92;98495.65;105293;1262;59313;-26
2024/03/31 05:38:31;;;;;;;10.70;3.70;;;;;;;15.48;54.63;98497.46;108796;1262;73080;-26
2024/03/31 05:41:10;;;;;;;9.20;3.90;;;;;;;15.67;54.41;98497.61;108762;1262;73227;-26
2024/03/31 05:43:38;;;;;;;14.50;2.90;;;;;;;15.82;54.01;98498.92;108738;1262;71260;-26
2024/03/31 05:46:05;;;;;;;22.10;4.30;;;;;;;15.98;54.11;98498.03;108718;1263;59084;-26
2024/03/31 05:48:33;;;;;;;10.90;3.90;;;;;;;16.11;54.00;98492.72;108747;1262;58841;-26
2024/03/31 05:51:00;;;;;;;10.40;2.80;;;;;;;16.27;53.48;98491.83;108761;1263;73834;-26
2024/03/31 05:53:29;;;;;;;8.40;2.80;;;;;;;16.34;53.32;98490.00;108799;1262;74527;-26
2024/03/31 05:55:56;;;;;;;14.30;4.10;;;;;;;16.44;52.95;98489.56;108776;1263;71020;-26
2024/03/31 05:58:24;;;;;;;5.80;2.90;;;;;;;16.50;52.86;98487.98;108725;1266;58865;-26
2024/03/31 06:00:52;;;;;;;10.80;3.30;;;;;;;16.58;52.83;98492.83;108727;1263;60030;-26
2024/03/31 06:03:20;;;;;;;12.90;3.50;;;;;;;16.69;52.52;98486.20;108645;1264;72655;-26
2024/03/31 06:05:48;;;;;;;15.20;4.00;;;;;;;16.77;52.42;98486.90;108847;1261;73342;-26
2024/03/31 06:08:16;;;;;;;16.70;3.70;;;;;;;16.83;51.97;98484.71;108830;1260;72689;-26
2024/03/31 06:10:43;;;;;;;16.40;3.70;;;;;;;17.01;52.09;98487.76;108859;1261;60082;-26
2024/03/31 06:13:10;;;;;;;18.70;5.40;;;;;;;17.08;52.08;98486.08;108849;1261;58748;-26
2024/03/31 06:15:38;;;;;;;15.10;3.90;;;;;;;17.20;51.86;98488.67;108859;1262;73021;-26
2024/03/31 06:18:06;;;;;;;14.20;3.80;;;;;;;17.29;51.84;98490.07;108848;1260;74368;-26
2024/03/31 06:20:37;;;;;;;22.20;5.00;;;;;;;17.42;51.67;98491.14;108826;1262;72712;-27
2024/03/31 06:23:04;;;;;;;12.10;3.20;;;;;;;17.43;51.76;98487.35;108810;1260;60099;-26
2024/03/31 06:25:32;;;;;;;10.60;2.80;;;;;;;17.48;51.23;98489.20;108886;1260;60184;-26
2024/03/31 06:27:59;;;;;;;15.30;3.90;;;;;;;17.58;51.21;98492.83;108851;1260;72623;-26
2024/03/31 06:30:27;;;;;;;8.60;3.00;;;;;;;17.73;51.18;98494.70;108835;1260;74342;-26
2024/03/31 06:32:55;;;;;;;8.00;2.70;;;;;;;17.81;50.54;98498.44;108785;1264;71233;-25
2024/03/31 06:35:23;;;;;;;14.70;3.30;;;;;;;18.01;50.38;98494.73;108789;1262;59001;-26
2024/03/31 06:37:51;;;;;;;17.00;3.70;;;;;;;18.22;49.91;98499.58;108816;1264;60006;-25
2024/03/31 06:40:18;;;;;;;11.30;3.00;;;;;;;18.33;49.69;98495.55;108767;1263;73866;-26
2024/03/31 06:42:46;;;;;;;12.10;3.80;;;;;;;18.49;49.33;98499.22;108813;1261;74382;-25
2024/03/31 06:45:14;;;;;;;14.20;3.70;;;;;;;18.64;49.11;98496.36;109002;1257;72640;-25
2024/03/31 06:47:41;;;;;;;8.00;3.70;;;;;;;18.88;48.91;98499.79;109108;1257;60109;-26
2024/03/31 06:50:09;;;;;;;7.40;2.50;;;;;;;19.04;48.75;98498.41;109048;1261;58818;-25
2024/03/31 06:52:36;;;;;;;12.50;3.40;;;;;;;19.17;48.27;98498.82;109060;1257;72567;-25
2024/03/31 06:55:04;;;;;;;10.80;3.20;;;;;;;19.33;47.87;98494.60;109141;1257;74409;-26
2024/03/31 06:57:32;;;;;;;9.90;1.80;;;;;;;19.49;47.68;98489.06;109040;1257;72806;-25
2024/03/31 06:59:59;;;;;;;8.00;2.60;;;;;;;19.60;47.36;98493.02;109072;1257;58869;-26
2024/03/31 07:02:27;;;;;;;16.80;4.80;;;;;;;19.82;46.94;98491.83;109049;1257;59922;-26
2024/03/31 07:04:55;;;;;;;7.50;3.00;;;;;;;20.04;46.53;98494.30;109092;1257;73871;-26
2024/03/31 07:07:22;;;;;;;11.90;2.50;;;;;;;20.23;46.11;98493.20;109104;1257;73298;-26
2024/03/31 07:09:50;;;;;;;18.30;4.10;;;;;;;20.30;45.61;98495.13;109070;1257;72639;-26
2024/03/31 07:12:17;;;;;;;13.40;3.70;;;;;;;20.32;45.31;98493.57;109081;1257;58845;-26
2024/03/31 07:14:47;;;;;;;8.30;3.00;;;;;;;20.55;45.20;98492.16;109043;1257;59863;-26
2024/03/31 07:17:15;;;;;;;13.90;3.60;;;;;;;20.66;44.90;98493.73;109084;1257;73829;-26
2024/03/31 07:19:43;;;;;;;12.60;4.30;;;;;;;20.93;44.85;98485.55;108987;1257;74533;-26
2024/03/31 07:22:11;;;;;;;15.90;5.20;;;;;;;21.25;44.11;98484.22;109064;1257;71391;-26
2024/03/31 07:24:38;;;;;;;12.40;2.90;;;;;;;21.33;43.50;98484.16;109075;1257;60101;-26
2024/03/31 07:27:06;;;;;;;9.00;3.20;;;;;;;21.45;43.62;98481.88;109026;1258;60012;-27
2024/03/31 07:29:33;;;;;;;12.50;4.30;;;;;;;21.64;43.07;98482.25;109082;1256;72933;-27
2024/03/31 07:32:00;;;;;;;14.40;4.90;;;;;;;21.67;43.09;98481.66;109079;1257;74450;-28
2024/03/31 07:34:28;;;;;;;13.70;3.10;;;;;;;21.99;42.69;98480.05;109069;1257;71398;-28
2024/03/31 07:36:56;;;;;;;12.60;5.20;;;;;;;22.21;41.93;98474.98;109066;1257;58817;-28
2024/03/31 07:39:23;;;;;;;12.80;4.60;;;;;;;22.44;42.26;98474.71;109108;1257;60104;-27
2024/03/31 07:41:50;;;;;;;12.00;4.60;;;;;;;22.72;41.74;98467.64;109079;1257;72543;-28
2024/03/31 07:44:18;;;;;;;16.90;4.90;;;;;;;22.88;40.94;98471.37;109082;1257;74515;-27
2024/03/31 07:46:45;;;;;;;16.00;4.30;;;;;;;23.17;41.05;98472.02;109018;1257;71544;-27
2024/03/31 07:49:13;;;;;;;20.20;3.50;;;;;;;23.34;40.53;98475.48;109044;1257;62345;-27
2024/03/31 07:51:40;;;;;;;11.60;3.20;;;;;;;23.52;40.51;98472.52;109100;1257;62332;-27
2024/03/31 07:54:08;;;;;;;10.50;3.30;;;;;;;23.64;39.88;98467.05;109113;1257;73868;-27
2024/03/31 07:56:35;;;;;;;11.90;4.10;;;;;;;23.61;39.65;98466.27;109025;1257;74308;-28
2024/03/31 07:59:03;;;;;;;12.20;4.70;;;;;;;23.62;39.84;98466.84;109050;1257;71451;-27
2024/03/31 08:01:30;;;;;;;9.90;3.90;;;;;;;23.78;39.67;98466.38;108986;1257;58780;-27
2024/03/31 08:04:00;;;;;;;9.50;3.60;;;;;;;23.81;39.18;98464.52;109086;1257;63524;-27
2024/03/31 08:06:27;;;;;;;10.20;4.00;;;;;;;23.59;38.69;98456.65;108989;1260;73820;-28
2024/03/31 08:08:55;;;;;;;11.90;3.60;;;;;;;23.75;39.56;98459.41;109009;1257;74073;-28
2024/03/31 08:11:23;;;;;;;17.80;3.90;;;;;;;24.14;38.97;98459.84;109038;1258;74879;-28
2024/03/31 08:13:50;;;;;;;10.70;4.10;;;;;;;24.44;38.75;98458.91;108997;1258;60911;-28
2024/03/31 08:16:18;;;;;;;11.50;4.40;;;;;;;24.63;38.38;98451.63;108987;1258;60289;-27
2024/03/31 08:18:45;;;;;;;10.30;3.80;;;;;;;24.76;38.38;98448.63;109033;1259;73889;-28
2024/03/31 08:21:13;;;;;;;6.70;3.30;;;;;;;25.31;37.59;98441.18;109115;1257;73071;-28
2024/03/31 08:23:40;;;;;;;10.90;3.60;;;;;;;25.38;37.28;98441.38;109040;1260;72672;-28
2024/03/31 08:26:08;;;;;;;9.10;3.50;;;;;;;25.00;37.47;98442.64;109106;1257;60050;-27
2024/03/31 08:28:36;;;;;;;9.00;4.00;;;;;;;24.68;37.82;98436.53;109079;1258;61400;-27
2024/03/31 08:31:03;;;;;;;9.70;4.10;;;;;;;24.55;38.14;98434.94;109011;1258;74567;-27
2024/03/31 08:33:31;;;;;;;10.90;3.70;;;;;;;24.85;38.74;98435.35;108985;1257;73229;-27
2024/03/31 08:35:58;;;;;;;11.60;3.40;;;;;;;25.15;38.08;98432.88;109050;1257;72710;-26
2024/03/31 08:38:26;;;;;;;12.30;4.00;;;;;;;25.01;37.61;98426.52;108970;1260;58883;-25
2024/03/31 08:40:55;;;;;;;10.30;4.00;;;;;;;24.99;38.63;98430.90;108996;1257;59106;-25
2024/03/31 08:43:23;;;;;;;9.20;3.40;;;;;;;25.31;38.44;98436.39;108925;1257;75745;-25
2024/03/31 08:45:50;;;;;;;9.80;3.20;;;;;;;25.47;37.45;98432.73;108996;1257;77992;-25
2024/03/31 08:48:19;;;;;;;9.80;4.00;;;;;;;25.56;37.45;98433.81;109073;1258;72437;-26
2024/03/31 08:50:50;;;;;;;10.40;4.00;;;;;;;25.48;37.35;98429.92;109003;1258;58941;-26
2024/03/31 08:53:17;;;;;;;9.70;3.40;;;;;;;25.12;37.57;98429.41;108963;1257;59987;-26
2024/03/31 08:55:45;;;;;;;13.20;4.20;;;;;;;25.35;38.43;98428.27;108935;1258;74921;-26
2024/03/31 08:58:12;;;;;;;10.10;3.50;;;;;;;25.64;38.40;98427.81;108999;1257;76293;-26
2024/03/31 09:00:41;;;;;;;12.90;3.70;;;;;;;25.65;37.95;98429.60;109008;1259;70739;-26
2024/03/31 09:03:09;;;;;;;9.40;3.70;;;;;;;25.56;37.20;98428.27;108924;1258;58958;-26
2024/03/31 09:05:37;;;;;;;13.00;3.80;;;;;;;25.08;37.49;98424.73;109002;1259;58782;-26
2024/03/31 09:08:05;;;;;;;10.20;3.70;;;;;;;24.93;38.56;98419.70;109007;1259;75772;-26
2024/03/31 09:10:32;;;;;;;11.40;3.50;;;;;;;25.02;39.12;98419.84;108961;1260;75064;-26
2024/03/31 09:13:05;;;;;;;12.10;4.00;;;;;;;25.34;38.41;98430.48;109001;1258;72706;-26
2024/03/31 09:15:35;;;;;;;11.70;4.40;;;;;;;25.75;38.15;98428.11;108935;1260;62422;-27
2024/03/31 09:18:02;;;;;;;12.90;4.00;;;;;;;26.16;37.39;98425.49;108994;1260;60333;-26
2024/03/31 09:20:30;;;;;;;10.20;4.00;;;;;;;26.28;37.03;98424.25;109052;1260;75888;-26
2024/03/31 09:22:58;;;;;;;10.50;3.80;;;;;;;26.65;37.14;98427.77;108998;1260;74586;-26
2024/03/31 09:25:25;;;;;;;10.40;4.30;;;;;;;26.84;36.50;98422.31;108924;1260;73563;-26
2024/03/31 09:27:54;;;;;;;11.20;3.80;;;;;;;27.03;36.36;98419.05;108977;1258;61483;-26
2024/03/31 09:30:24;;;;;;;13.50;4.30;;;;;;;27.07;35.98;98419.37;108963;1260;61053;-26
2024/03/31 09:32:52;;;;;;;10.40;3.80;;;;;;;27.20;35.60;98418.39;109056;1259;78114;-26
2024/03/31 09:35:19;;;;;;;8.20;3.50;;;;;;;27.38;35.35;98420.73;109084;1260;76364;-26
2024/03/31 09:37:47;;;;;;;8.30;3.70;;;;;;;27.75;35.14;98415.40;108936;1260;72663;-26
2024/03/31 09:40:15;;;;;;;12.90;3.50;;;;;;;27.79;34.90;98414.20;108979;1260;62165;-26
2024/03/31 09:42:44;;;;;;;7.70;3.50;;;;;;;27.96;34.07;98409.70;108977;1260;60030;-26
2024/03/31 09:45:11;;;;;;;10.10;3.50;;;;;;;27.68;33.61;98407.63;108908;1260;76994;-26
2024/03/31 09:47:48;;;;;;;9.00;3.40;;;;;;;27.46;34.17;98405.00;109014;1258;74592;-26
2024/03/31 09:50:24;;;;;;;9.50;4.00;;;;;;;27.88;34.44;98405.30;108963;1260;75174;-26
2024/03/31 09:52:59;;;;;;;8.00;3.50;;;;;;;28.23;33.58;98403.19;108878;1259;59080;-25
2024/03/31 09:55:26;;;;;;;9.00;3.40;;;;;;;28.30;33.55;98402.75;108948;1259;61469;-26
2024/03/31 09:57:56;;;;;;;8.50;3.60;;;;;;;28.64;33.37;98406.44;109001;1258;76867;-25
2024/03/31 10:00:23;;;;;;;13.60;4.00;;;;;;;28.77;32.81;98407.11;108931;1260;76762;-26
2024/03/31 10:02:57;;;;;;;11.40;3.60;;;;;;;28.95;32.41;98404.63;108958;1260;74603;-26
2024/03/31 10:05:36;;;;;;;7.60;3.70;;;;;;;28.87;32.63;98407.86;108846;1260;58983;-26
2024/03/31 10:08:04;;;;;;;8.50;3.30;;;;;;;28.89;32.65;98407.33;108848;1261;61053;-26
2024/03/31 10:10:32;;;;;;;11.00;3.60;;;;;;;28.90;32.23;98407.66;108800;1260;74662;-25
2024/03/31 10:13:00;;;;;;;9.70;2.90;;;;;;;29.01;32.22;98410.27;108831;1260;76749;-26
2024/03/31 10:15:28;;;;;;;9.00;3.40;;;;;;;29.15;32.06;98404.74;108905;1259;71660;-25
2024/03/31 10:17:56;;;;;;;7.90;3.30;;;;;;;29.06;31.76;98402.58;108947;1260;62803;-25
2024/03/31 10:20:24;;;;;;;15.10;3.40;;;;;;;29.12;31.97;98402.77;108926;1259;61317;-26
2024/03/31 10:22:51;;;;;;;12.30;3.40;;;;;;;28.77;31.52;98406.14;108985;1260;75824;-26
2024/03/31 10:25:19;;;;;;;13.80;3.70;;;;;;;28.06;32.50;98404.02;108831;1260;76277;-25
2024/03/31 10:27:46;;;;;;;14.80;3.80;;;;;;;28.32;31.99;98406.93;108861;1260;73671;-25
2024/03/31 10:30:14;;;;;;;10.40;3.40;;;;;;;28.03;32.05;98399.64;108908;1261;60829;-25
2024/03/31 10:32:41;;;;;;;8.40;3.20;;;;;;;27.56;32.63;98395.33;108958;1260;61198;-26
2024/03/31 10:35:09;;;;;;;8.20;3.00;;;;;;;26.94;34.01;98399.34;108945;1259;77421;-25
2024/03/31 10:37:37;;;;;;;10.90;3.30;;;;;;;26.76;34.49;98403.90;108976;1260;76425;-26
2024/03/31 10:40:05;;;;;;;10.20;3.00;;;;;;;26.72;34.15;98399.25;108891;1261;74673;-26
2024/03/31 10:42:33;;;;;;;11.10;3.40;;;;;;;27.25;34.16;98397.27;108791;1259;61278;-26
2024/03/31 10:45:01;;;;;;;11.10;3.70;;;;;;;27.61;33.56;98393.46;108926;1259;61495;-26
2024/03/31 10:47:28;;;;;;;5.30;2.70;;;;;;;27.27;33.37;98390.78;108890;1258;76239;-26
2024/03/31 10:49:57;;;;;;;9.50;3.40;;;;;;;27.09;33.91;98382.57;108852;1259;76863;-26
2024/03/31 10:52:26;;;;;;;10.20;3.40;;;;;;;27.18;33.91;98374.40;108934;1263;74972;-26
2024/03/31 10:54:57;;;;;;;8.10;3.40;;;;;;;27.47;33.73;98372.83;108954;1260;61160;-26
2024/03/31 10:57:33;;;;;;;9.10;3.40;;;;;;;27.29;33.49;98366.86;108955;1260;62376;-26
2024/03/31 11:00:02;;;;;;;9.00;3.30;;;;;;;27.53;34.34;98363.75;108890;1260;73846;-26
2024/03/31 11:02:33;;;;;;;10.90;3.70;;;;;;;27.48;33.90;98362.04;108891;1260;75021;-26
2024/03/31 11:05:05;;;;;;;12.90;3.60;;;;;;;27.92;33.73;98358.99;108952;1260;74893;-26
2024/03/31 11:07:37;;;;;;;9.30;3.00;;;;;;;28.67;32.01;98352.14;108870;1259;60687;-26
2024/03/31 11:10:06;;;;;;;7.20;3.20;;;;;;;28.86;31.93;98353.20;108809;1266;60926;-26
2024/03/31 11:12:35;;;;;;;12.30;3.60;;;;;;;28.78;31.60;98351.17;108900;1260;78134;-26
2024/03/31 11:15:03;;;;;;;15.20;3.20;;;;;;;28.74;31.33;98344.63;108973;1260;75268;-26
2024/03/31 11:17:31;;;;;;;10.60;2.80;;;;;;;28.51;31.02;98350.09;108916;1263;73697;-26
2024/03/31 11:20:01;;;;;;;12.20;3.30;;;;;;;28.34;31.12;98350.40;108948;1260;60042;-26
2024/03/31 11:22:30;;;;;;;9.30;3.20;;;;;;;28.27;31.48;98350.11;108794;1260;63368;-26
2024/03/31 11:24:58;;;;;;;5.80;2.60;;;;;;;28.44;31.57;98349.98;108941;1260;76012;-26
2024/03/31 11:27:25;;;;;;;11.20;3.00;;;;;;;28.00;32.73;98340.48;108952;1260;76739;-26
2024/03/31 11:29:53;;;;;;;10.40;3.30;;;;;;;28.92;31.52;98331.73;108808;1266;72158;-26
2024/03/31 11:32:21;;;;;;;9.40;3.00;;;;;;;29.08;30.92;98332.96;108878;1260;62073;-26
2024/03/31 11:34:49;;;;;;;9.90;2.70;;;;;;;28.85;31.11;98327.96;108977;1260;61163;-26
2024/03/31 11:37:16;;;;;;;8.60;3.20;;;;;;;29.00;31.01;98330.68;108944;1260;74710;-26
2024/03/31 11:39:47;;;;;;;8.60;2.70;;;;;;;29.41;31.28;98320.88;108916;1259;76287;-26
2024/03/31 11:42:15;;;;;;;10.30;3.20;;;;;;;29.59;30.70;98323.87;108890;1260;71263;-26
2024/03/31 11:44:42;;;;;;;10.80;3.30;;;;;;;29.55;30.66;98320.77;108867;1259;60718;-25
2024/03/31 11:47:12;;;;;;;9.50;2.70;;;;;;;29.20;30.54;98318.19;108894;1261;59022;-25
2024/03/31 11:49:39;;;;;;;9.60;3.30;;;;;;;28.92;30.60;98313.58;108827;1260;73414;-26
2024/03/31 11:52:07;;;;;;;15.20;3.80;;;;;;;28.73;31.17;98311.20;108957;1259;77126;-26
2024/03/31 11:54:35;;;;;;;10.80;3.50;;;;;;;28.42;31.35;98316.26;108818;1261;75858;-25
2024/03/31 11:57:03;;;;;;;10.30;3.00;;;;;;;28.03;31.74;98313.66;108870;1260;61001;-25
2024/03/31 11:59:31;;;;;;;11.20;3.50;;;;;;;27.90;32.18;98309.45;108886;1260;62475;-26
2024/03/31 12:02:01;;;;;;;10.90;2.90;;;;;;;28.32;32.07;98302.32;108912;1260;77845;-26
2024/03/31 12:04:31;;;;;;;10.50;3.30;;;;;;;28.68;31.94;98301.00;108878;1260;78016;-26
2024/03/31 12:07:01;;;;;;;12.20;3.30;;;;;;;28.80;32.03;98299.92;108840;1260;74561;-26
2024/03/31 12:09:30;;;;;;;7.70;2.80;;;;;;;28.76;31.84;98295.88;108809;1260;60766;-25
2024/03/31 12:11:59;;;;;;;13.50;3.30;;;;;;;28.45;31.94;98295.45;108887;1261;58871;-25
2024/03/31 12:14:30;;;;;;;9.90;3.00;;;;;;;28.27;32.07;98296.91;108949;1260;75657;-26
2024/03/31 12:17:01;;;;;;;6.60;2.80;;;;;;;27.83;31.96;98301.27;108780;1260;76615;-26
2024/03/31 12:19:31;;;;;;;9.40;3.20;;;;;;;27.73;31.81;98301.04;108831;1260;73771;-26
2024/03/31 12:22:01;;;;;;;11.60;3.50;;;;;;;27.75;31.82;98298.11;108887;1260;62223;-26
2024/03/31 12:24:33;;;;;;;9.50;3.00;;;;;;;27.77;31.92;98297.11;108900;1260;62377;-26
2024/03/31 12:27:04;;;;;;;11.00;3.40;;;;;;;27.68;32.26;98288.11;108809;1260;76025;-26
2024/03/31 12:29:43;;;;;;;9.40;2.90;;;;;;;27.70;32.54;98285.45;108941;1260;76478;-27
2024/03/31 12:32:14;;;;;;;7.70;3.00;;;;;;;27.80;32.49;98288.25;108831;1261;74863;-26
2024/03/31 12:34:46;;;;;;;8.80;3.10;;;;;;;27.79;32.73;98283.95;108900;1260;60274;-26
2024/03/31 12:37:16;;;;;;;9.70;3.20;;;;;;;27.71;32.40;98278.83;108944;1260;61615;-26
2024/03/31 12:39:46;;;;;;;9.80;2.90;;;;;;;27.57;32.54;98281.12;108915;1260;76712;-27
2024/03/31 12:42:15;;;;;;;9.40;3.20;;;;;;;27.40;32.63;98277.44;108768;1260;75504;-26
2024/03/31 12:44:46;;;;;;;9.90;3.30;;;;;;;27.42;32.65;98278.20;108875;1260;74859;-26
2024/03/31 12:47:16;;;;;;;10.00;3.10;;;;;;;27.44;32.84;98272.83;108758;1260;61847;-26
2024/03/31 12:49:47;;;;;;;8.70;3.50;;;;;;;27.42;33.06;98275.41;108805;1260;63660;-26
2024/03/31 12:52:17;;;;;;;13.60;3.40;;;;;;;27.37;32.76;98274.69;108899;1260;76347;-27
2024/03/31 12:54:48;;;;;;;10.90;3.30;;;;;;;27.15;33.13;98273.70;108961;1260;75442;-26
2024/03/31 12:57:18;;;;;;;11.90;3.20;;;;;;;27.33;33.16;98276.10;108920;1260;75405;-26
2024/03/31 12:59:48;;;;;;;10.90;3.40;;;;;;;27.10;33.23;98266.47;108786;1260;60071;-26
2024/03/31 13:10:03;;;;;;;9.50;3.30;;;;;;;27.06;32.77;98254.75;102616;1294;600327;-25
2024/03/31 13:12:32;;;;;;;9.60;2.70;;;;;;;27.55;32.72;98249.56;104821;1271;62563;-25
2024/03/31 13:14:59;;;;;;;9.40;3.00;;;;;;;27.60;32.09;98241.80;105290;1264;62676;-25
2024/03/31 13:17:27;;;;;;;10.80;3.40;;;;;;;27.57;32.10;98235.94;105242;1264;77054;-25
2024/03/31 13:19:55;;;;;;;13.50;3.20;;;;;;;27.79;31.33;98232.45;105367;1263;74722;-25
2024/03/31 13:22:24;;;;;;;7.50;3.50;;;;;;;27.83;31.70;98236.44;102703;1263;4678062;-26
2024/03/31 13:24:52;;;;;;;8.30;2.90;;;;;;;27.82;31.40;98234.98;105280;1265;61096;-26
2024/03/31 13:27:19;;;;;;;10.60;3.20;;;;;;;27.73;31.25;98234.51;105619;1263;61242;-26
2024/03/31 13:29:47;;;;;;;7.10;2.90;;;;;;;27.55;31.65;98231.23;105497;1257;75741;-25
2024/03/31 13:32:15;;;;;;;10.20;3.20;;;;;;;27.58;32.10;98229.13;105391;1263;78847;-26
2024/03/31 13:34:43;;;;;;;11.10;3.20;;;;;;;27.54;32.00;98233.52;105246;1257;76715;-25
2024/03/31 13:37:10;;;;;;;10.90;3.70;;;;;;;27.61;31.89;98228.23;105570;1257;62285;-26
2024/03/31 13:39:38;;;;;;;8.40;3.00;;;;;;;27.79;31.95;98232.30;105574;1262;61812;-25